createdAt,value
2018-09-08T06:53:19.388Z,704
2018-09-08T06:53:39.575Z,704
2018-09-08T06:53:59.761Z,708
2018-09-08T06:54:20.011Z,712
2018-09-08T06:54:40.213Z,712
2018-09-08T06:55:00.442Z,720
2018-09-08T06:55:20.717Z,724
2018-09-08T06:55:40.956Z,728
2018-09-08T06:56:01.122Z,732
2018-09-08T06:56:21.278Z,740
2018-09-08T06:56:41.421Z,752
2018-09-08T06:57:01.620Z,760
2018-09-08T06:57:21.865Z,764
2018-09-08T06:57:42.123Z,760
2018-09-08T06:58:02.385Z,760
2018-09-08T06:58:22.590Z,764
2018-09-08T06:58:42.841Z,772
2018-09-08T06:59:03.045Z,764
2018-09-08T06:59:23.255Z,760
2018-09-08T06:59:43.528Z,812
2018-09-08T07:00:03.762Z,828
2018-09-08T07:00:23.963Z,808
2018-09-08T07:00:44.235Z,804
2018-09-08T07:01:04.434Z,732
2018-09-08T07:01:24.776Z,748
2018-09-08T07:01:45.280Z,692
2018-09-08T07:02:06.458Z,720
2018-09-08T07:02:26.751Z,700
2018-09-08T07:02:46.991Z,688
2018-09-08T07:03:07.950Z,668
2018-09-08T07:03:32.677Z,676
2018-09-08T07:03:53.391Z,700
2018-09-08T07:04:13.597Z,764
2018-09-08T07:04:33.809Z,768
2018-09-08T07:04:54.049Z,692
2018-09-08T07:05:14.287Z,720
2018-09-08T07:05:34.522Z,816
2018-09-08T07:05:55.002Z,788
2018-09-08T07:06:15.746Z,716
2018-09-08T07:06:36.042Z,704
2018-09-08T07:06:56.252Z,736
2018-09-08T07:07:16.534Z,864
2018-09-08T07:07:36.791Z,876
2018-09-08T07:07:57.075Z,888
2018-09-08T07:08:17.355Z,880
2018-09-08T07:08:37.610Z,880
2018-09-08T07:08:57.850Z,816
2018-09-08T07:09:18.094Z,860
2018-09-08T07:09:38.315Z,840
2018-09-08T07:09:58.497Z,864
2018-09-08T07:10:18.745Z,828
2018-09-08T07:10:38.965Z,924
2018-09-08T07:10:59.267Z,876
2018-09-08T07:11:19.428Z,824
2018-09-08T07:11:39.718Z,872
2018-09-08T07:11:59.940Z,972
2018-09-08T07:12:20.120Z,964
2018-09-08T07:12:40.448Z,896
2018-09-08T07:13:00.689Z,952
2018-09-08T07:13:20.896Z,932
2018-09-08T07:13:41.259Z,848
2018-09-08T07:14:01.584Z,812
2018-09-08T07:14:21.800Z,800
2018-09-08T07:14:42.117Z,804
2018-09-08T07:15:02.388Z,800
2018-09-08T07:15:22.724Z,800
2018-09-08T07:15:43.018Z,800
2018-09-08T07:16:03.300Z,808
2018-09-08T07:16:23.537Z,812
2018-09-08T07:16:44.265Z,812
2018-09-08T07:17:04.650Z,812
2018-09-08T07:17:25.135Z,812
2018-09-08T07:17:45.362Z,812
2018-09-08T07:18:05.643Z,812
2018-09-08T07:18:25.832Z,816
2018-09-08T07:18:46.082Z,816
2018-09-08T07:19:06.341Z,824
2018-09-08T07:19:26.581Z,824
2018-09-08T07:19:46.840Z,824
2018-09-08T07:20:07.249Z,832
2018-09-08T07:20:27.526Z,828
2018-09-08T07:20:47.751Z,824
2018-09-08T07:21:07.977Z,828
2018-09-08T07:21:28.206Z,832
2018-09-08T07:21:48.525Z,832
2018-09-08T07:22:09.651Z,832
2018-09-08T07:22:29.918Z,840
2018-09-08T07:22:50.153Z,840
2018-09-08T07:23:10.465Z,844
2018-09-08T07:23:30.944Z,844
2018-09-08T07:23:51.291Z,840
2018-09-08T07:24:11.472Z,840
2018-09-08T07:24:31.794Z,852
2018-09-08T07:24:52.035Z,864
2018-09-08T07:25:12.942Z,880
2018-09-08T07:25:33.460Z,904
2018-09-08T07:25:53.688Z,924
2018-09-08T07:26:13.978Z,912
2018-09-08T07:26:34.202Z,896
2018-09-08T07:26:54.583Z,896
2018-09-08T07:27:14.941Z,904
2018-09-08T07:27:35.220Z,904
2018-09-08T07:27:55.613Z,932
2018-09-08T07:28:16.120Z,1060
2018-09-08T07:28:36.525Z,1136
2018-09-08T07:28:56.765Z,1044
2018-09-08T07:29:17.003Z,980
2018-09-08T07:29:37.244Z,984
2018-09-08T07:29:57.535Z,1000
2018-09-08T07:30:17.844Z,976
2018-09-08T07:30:38.035Z,940
2018-09-08T07:30:58.261Z,920
2018-09-08T07:31:18.547Z,912
2018-09-08T07:31:38.895Z,896
2018-09-08T07:31:59.164Z,888
2018-09-08T07:32:19.447Z,868
2018-09-08T07:32:39.734Z,864
2018-09-08T07:33:00.049Z,864
2018-09-08T07:33:20.340Z,872
2018-09-08T07:33:40.792Z,880
2018-09-08T07:34:01.073Z,888
2018-09-08T07:34:21.453Z,880
2018-09-08T07:34:41.842Z,880
2018-09-08T07:35:02.135Z,848
2018-09-08T07:35:22.376Z,860
2018-09-08T07:35:42.591Z,860
2018-09-08T07:36:02.853Z,836
2018-09-08T07:36:23.067Z,844
2018-09-08T07:36:43.401Z,872
2018-09-08T07:37:03.798Z,880
2018-09-08T07:37:24.101Z,872
2018-09-08T07:37:44.315Z,876
2018-09-08T07:38:04.662Z,904
2018-09-08T07:38:25.031Z,912
2018-09-08T07:38:45.539Z,976
2018-09-08T07:39:05.764Z,1028
2018-09-08T07:39:26.043Z,1044
2018-09-08T07:39:46.432Z,1028
2018-09-08T07:40:06.656Z,996
2018-09-08T07:40:26.900Z,984
2018-09-08T07:40:47.088Z,960
2018-09-08T07:41:07.461Z,936
2018-09-08T07:41:27.840Z,928
2018-09-08T07:41:48.163Z,924
2018-09-08T07:42:08.495Z,916
2018-09-08T07:42:28.740Z,936
2018-09-08T07:42:48.988Z,924
2018-09-08T07:43:09.257Z,912
2018-09-08T07:43:29.607Z,880
2018-09-08T07:43:49.886Z,816
2018-09-08T07:44:10.366Z,752
2018-09-08T07:44:30.663Z,724
2018-09-08T07:44:51.044Z,704
2018-09-08T07:45:13.446Z,708
2018-09-08T07:46:55.130Z,676
2018-09-08T07:47:15.415Z,692
2018-09-08T07:47:35.855Z,688
2018-09-08T07:47:56.217Z,692
2018-09-08T07:48:16.632Z,680
2018-09-08T07:48:36.923Z,680
2018-09-08T07:48:57.229Z,696
2018-09-08T07:49:17.626Z,732
2018-09-08T07:49:37.944Z,772
2018-09-08T07:49:58.265Z,840
2018-09-08T07:50:18.513Z,916
2018-09-08T07:50:39.015Z,960
2018-09-08T07:50:59.646Z,980
2018-09-08T07:51:21.063Z,984
2018-09-08T07:51:41.758Z,964
2018-09-08T07:52:05.567Z,944
2018-09-08T07:52:26.538Z,944
2018-09-08T07:52:49.382Z,968
2018-09-08T07:53:10.264Z,952
2018-09-08T07:53:31.368Z,1008
2018-09-08T07:53:52.212Z,1064
2018-09-08T07:54:13.374Z,1096
2018-09-08T07:54:33.807Z,1092
2018-09-08T07:54:54.603Z,1092
2018-09-08T07:55:17.811Z,1052
2018-09-08T07:55:38.385Z,1008
2018-09-08T07:55:59.218Z,980
2018-09-08T07:56:21.187Z,964
2018-09-08T07:56:42.101Z,972
2018-09-08T07:57:02.896Z,968
2018-09-08T07:57:23.750Z,952
2018-09-08T07:57:44.234Z,972
2018-09-08T07:58:04.636Z,972
2018-09-08T07:58:25.124Z,980
2018-09-08T07:58:45.822Z,984
2018-09-08T07:59:06.256Z,972
2018-09-08T07:59:27.122Z,972
2018-09-08T07:59:47.393Z,984
2018-09-08T08:00:07.678Z,984
2018-09-08T08:00:29.814Z,1012
2018-09-08T08:00:50.052Z,984
2018-09-08T08:01:10.395Z,1008
2018-09-08T08:01:31.673Z,988
2018-09-08T08:01:51.942Z,980
2018-09-08T08:02:12.204Z,996
2018-09-08T08:02:32.531Z,1000
2018-09-08T08:02:52.791Z,1024
2018-09-08T08:03:13.052Z,1044
2018-09-08T08:03:33.363Z,1032
2018-09-08T08:03:53.534Z,1024
2018-09-08T08:04:13.788Z,1036
2018-09-08T08:04:34.037Z,1044
2018-09-08T08:04:54.306Z,1016
2018-09-08T08:05:14.525Z,1008
2018-09-08T08:05:34.762Z,1004
2018-09-08T08:05:54.958Z,1000
2018-09-08T08:06:15.143Z,996
2018-09-08T08:06:35.440Z,996
2018-09-08T08:06:55.661Z,988
2018-09-08T08:07:15.941Z,992
2018-09-08T08:07:36.478Z,1008
2018-09-08T08:07:57.370Z,996
2018-09-08T08:08:17.756Z,1000
2018-09-08T08:08:38.254Z,1012
2018-09-08T08:08:58.461Z,1012
2018-09-08T08:09:18.954Z,1016
2018-09-08T08:09:39.173Z,1004
2018-09-08T08:09:59.379Z,1012
2018-09-08T08:10:19.607Z,1020
2018-09-08T08:10:39.824Z,1008
2018-09-08T08:11:00.028Z,1020
2018-09-08T08:11:20.152Z,1012
2018-09-08T08:11:40.382Z,1020
2018-09-08T08:12:00.798Z,1012
2018-09-08T08:12:21.378Z,1004
2018-09-08T08:12:41.567Z,1012
2018-09-08T08:13:01.853Z,1004
2018-09-08T08:13:22.081Z,1004
2018-09-08T08:13:42.340Z,1000
2018-09-08T08:14:02.579Z,1008
2018-09-08T08:14:22.931Z,1000
2018-09-08T08:14:43.321Z,1024
2018-09-08T08:15:03.504Z,1012
2018-09-08T08:15:23.815Z,996
2018-09-08T08:15:44.119Z,1004
2018-09-08T08:16:04.366Z,1036
2018-09-08T08:16:24.564Z,1028
2018-09-08T08:16:45.622Z,1016
2018-09-08T08:17:05.885Z,1024
2018-09-08T08:17:26.212Z,1024
2018-09-08T08:17:46.502Z,1020
2018-09-08T08:18:06.760Z,1028
2018-09-08T08:18:26.957Z,1020
2018-09-08T08:18:47.196Z,1012
2018-09-08T08:19:07.420Z,1024
2018-09-08T08:19:27.625Z,1032
2018-09-08T08:19:47.827Z,1032
2018-09-08T08:20:08.018Z,1048
2018-09-08T08:20:28.541Z,1036
2018-09-08T08:20:48.910Z,1064
2018-09-08T08:21:09.182Z,1044
2018-09-08T08:21:29.690Z,1052
2018-09-08T08:21:50.112Z,1048
2018-09-08T08:22:11.492Z,1056
2018-09-08T08:22:32.552Z,1032
2018-09-08T08:22:52.794Z,1056
2018-09-08T08:23:13.210Z,1072
2018-09-08T08:23:33.411Z,1080
2018-09-08T08:23:53.625Z,1072
2018-09-08T08:24:13.896Z,1064
2018-09-08T08:24:34.171Z,1044
2018-09-08T08:24:54.644Z,1068
2018-09-08T08:25:14.910Z,1056
2018-09-08T08:25:35.125Z,1076
2018-09-08T08:25:55.509Z,1052
2018-09-08T08:26:16.024Z,1052
2018-09-08T08:26:36.741Z,1080
2018-09-08T08:26:57.125Z,1088
2018-09-08T08:27:17.281Z,1084
2018-09-08T08:27:37.523Z,1104
2018-09-08T08:27:57.877Z,1096
2018-09-08T08:28:18.184Z,1088
2018-09-08T08:28:38.577Z,1084
2018-09-08T08:28:58.776Z,1104
2018-09-08T08:29:19.061Z,1156
2018-09-08T08:29:39.493Z,1140
2018-09-08T08:30:01.214Z,1096
2018-09-08T08:30:21.820Z,1076
2018-09-08T08:30:42.032Z,1060
2018-09-08T08:31:02.497Z,1088
2018-09-08T08:31:24.534Z,1072
2018-09-08T08:31:44.725Z,1068
2018-09-08T08:32:04.900Z,1104
2018-09-08T08:32:25.166Z,1076
2018-09-08T08:32:45.382Z,1088
2018-09-08T08:33:05.667Z,1104
2018-09-08T08:33:25.929Z,1092
2018-09-08T08:33:46.203Z,1100
2018-09-08T08:34:06.436Z,1088
2018-09-08T08:34:26.655Z,1104
2018-09-08T08:34:46.934Z,1088
2018-09-08T08:35:07.120Z,1096
2018-09-08T08:35:27.451Z,1104
2018-09-08T08:35:47.663Z,1104
2018-09-08T08:36:07.934Z,1132
2018-09-08T08:36:28.413Z,1108
2018-09-08T08:36:48.580Z,1136
2018-09-08T08:37:08.841Z,1116
2018-09-08T08:37:29.230Z,1112
2018-09-08T08:37:49.426Z,1116
2018-09-08T08:38:09.469Z,1112
2018-09-08T08:38:29.795Z,1128
2018-09-08T08:38:50.012Z,1136
2018-09-08T08:39:10.223Z,1164
2018-09-08T08:39:30.475Z,1144
2018-09-08T08:39:50.840Z,1116
2018-09-08T08:40:11.066Z,1160
2018-09-08T08:40:31.495Z,1156
2018-09-08T08:40:51.694Z,1172
2018-09-08T08:41:11.962Z,1168
2018-09-08T08:41:32.740Z,1144
2018-09-08T08:41:53.014Z,1172
2018-09-08T08:42:13.394Z,1164
2018-09-08T08:42:33.779Z,1216
2018-09-08T08:42:54.049Z,1300
2018-09-08T08:43:14.316Z,1324
2018-09-08T08:43:34.811Z,1408
2018-09-08T08:43:55.091Z,1396
2018-09-08T08:44:15.352Z,1416
2018-09-08T08:44:35.694Z,1368
2018-09-08T08:44:56.025Z,1352
2018-09-08T08:45:16.454Z,1288
2018-09-08T08:45:36.652Z,1224
2018-09-08T08:45:56.833Z,1188
2018-09-08T08:46:17.168Z,1172
2018-09-08T08:46:37.608Z,1200
2018-09-08T08:46:58.709Z,1188
2018-09-08T08:47:18.875Z,1184
2018-09-08T08:47:39.140Z,1220
2018-09-08T08:47:59.405Z,1192
2018-09-08T08:48:19.702Z,1212
2018-09-08T08:48:39.932Z,1188
2018-09-08T08:49:00.124Z,1192
2018-09-08T08:49:20.372Z,1184
2018-09-08T08:49:41.054Z,1204
2018-09-08T08:50:01.239Z,1232
2018-09-08T08:50:21.412Z,1272
2018-09-08T08:50:41.675Z,1356
2018-09-08T08:51:02.172Z,1468
2018-09-08T08:51:22.337Z,1476
2018-09-08T08:51:42.519Z,1448
2018-09-08T08:52:02.776Z,1408
2018-09-08T08:52:23.068Z,1384
2018-09-08T08:52:43.188Z,1356
2018-09-08T08:53:03.433Z,1348
2018-09-08T08:53:23.648Z,1304
2018-09-08T08:53:43.894Z,1264
2018-09-08T08:54:04.264Z,1276
2018-09-08T08:54:24.451Z,1320
2018-09-08T08:54:44.723Z,1356
2018-09-08T08:55:04.916Z,1356
2018-09-08T08:55:25.139Z,1340
2018-09-08T08:55:45.453Z,1284
2018-09-08T08:56:05.566Z,1268
2018-09-08T08:56:25.988Z,1256
2018-09-08T08:56:46.251Z,1264
2018-09-08T08:57:06.419Z,1248
2018-09-08T08:57:26.613Z,1248
2018-09-08T08:57:46.945Z,1320
2018-09-08T08:58:07.208Z,1332
2018-09-08T08:58:27.430Z,1328
2018-09-08T08:58:47.659Z,1284
2018-09-08T08:59:07.891Z,1244
2018-09-08T08:59:28.189Z,1104
2018-09-08T08:59:48.407Z,1196
2018-09-08T09:00:08.607Z,1212
2018-09-08T09:00:28.805Z,1244
2018-09-08T09:00:49.032Z,1252
2018-09-08T09:01:09.257Z,1272
2018-09-08T09:01:29.421Z,1292
2018-09-08T09:01:49.688Z,1292
2018-09-08T09:02:09.875Z,1316
2018-09-08T09:02:30.044Z,1308
2018-09-08T09:02:50.296Z,1328
2018-09-08T09:03:10.520Z,848
2018-09-08T09:03:30.727Z,836
2018-09-08T09:03:50.920Z,812
2018-09-08T09:04:11.138Z,792
2018-09-08T09:04:31.391Z,768
2018-09-08T09:04:51.764Z,764
2018-09-08T09:05:11.961Z,1220
2018-09-08T09:05:32.167Z,1224
2018-09-08T09:05:52.337Z,968
2018-09-08T09:06:12.509Z,1252
2018-09-08T09:06:32.695Z,1256
2018-09-08T09:06:52.905Z,1280
2018-09-08T09:07:14.234Z,1340
2018-09-08T09:07:34.839Z,1356
2018-09-08T09:07:54.829Z,1396
2018-09-08T09:08:15.451Z,1296
2018-09-08T09:08:35.796Z,1248
2018-09-08T09:08:56.707Z,1236
2018-09-08T09:09:16.918Z,1252
2018-09-08T09:09:37.102Z,1408
2018-09-08T09:09:57.248Z,1444
2018-09-08T09:10:17.463Z,1444
2018-09-08T09:10:37.738Z,1420
2018-09-08T09:10:57.970Z,1372
2018-09-08T09:11:18.145Z,1348
2018-09-08T09:11:39.336Z,1336
2018-09-08T09:11:59.053Z,1332
2018-09-08T09:12:19.203Z,1356
2018-09-08T09:12:39.750Z,1344
2018-09-08T09:12:59.970Z,1372
2018-09-08T09:13:20.504Z,1320
2018-09-08T09:13:40.659Z,1300
2018-09-08T09:14:00.884Z,1116
2018-09-08T09:14:21.081Z,1148
2018-09-08T09:14:42.311Z,1316
2018-09-08T09:15:02.949Z,1336
2018-09-08T09:15:25.156Z,1308
2018-09-08T09:15:46.650Z,1328
2018-09-08T09:16:07.434Z,1296
2018-09-08T09:16:27.596Z,1312
2018-09-08T09:16:47.882Z,1324
2018-09-08T09:17:08.145Z,1292
2018-09-08T09:17:28.360Z,1336
2018-09-08T09:17:48.531Z,1336
2018-09-08T09:18:08.734Z,1364
2018-09-08T09:18:29.991Z,1384
2018-09-08T09:18:50.929Z,1164
2018-09-08T09:19:11.141Z,1436
2018-09-08T09:19:31.438Z,1424
2018-09-08T09:19:51.724Z,1380
2018-09-08T09:20:11.971Z,1360
2018-09-08T09:20:32.156Z,1380
2018-09-08T09:20:52.324Z,1372
2018-09-08T09:21:12.523Z,1240
2018-09-08T09:21:33.464Z,1320
2018-09-08T09:21:53.676Z,1288
2018-09-08T09:22:13.914Z,1280
2018-09-08T09:22:34.123Z,1096
2018-09-08T09:22:55.223Z,1284
2018-09-08T09:23:15.654Z,1300
2018-09-08T09:23:37.832Z,1248
2018-09-08T09:23:58.171Z,1060
2018-09-08T09:24:18.856Z,1320
2018-09-08T09:24:39.517Z,1440
2018-09-08T09:25:00.075Z,1408
2018-09-08T09:25:20.233Z,1460
2018-09-08T09:25:40.407Z,1428
2018-09-08T09:26:00.658Z,1388
2018-09-08T09:26:20.899Z,1416
2018-09-08T09:26:41.090Z,1488
2018-09-08T09:27:01.302Z,1540
2018-09-08T09:27:21.543Z,1560
2018-09-08T09:27:41.723Z,1600
2018-09-08T09:28:01.910Z,1560
2018-09-08T09:28:22.089Z,1540
2018-09-08T09:28:42.422Z,1572
2018-09-08T09:29:02.644Z,1644
2018-09-08T09:29:22.780Z,1700
2018-09-08T09:29:43.061Z,1728
2018-09-08T09:30:03.273Z,1756
2018-09-08T09:30:23.645Z,1768
2018-09-08T09:30:43.833Z,1688
2018-09-08T09:31:04.090Z,1660
2018-09-08T09:31:24.292Z,1620
2018-09-08T09:31:44.470Z,1596
2018-09-08T09:32:04.649Z,1648
2018-09-08T09:32:24.835Z,1628
2018-09-08T09:32:45.074Z,1608
2018-09-08T09:33:05.300Z,1552
2018-09-08T09:33:25.515Z,1568
2018-09-08T09:33:45.718Z,1460
2018-09-08T09:34:05.948Z,1412
2018-09-08T09:34:26.132Z,1408
2018-09-08T09:34:46.346Z,1428
2018-09-08T09:35:06.533Z,1448
2018-09-08T09:35:26.804Z,1448
2018-09-08T09:35:47.006Z,1480
2018-09-08T09:36:07.312Z,1528
2018-09-08T09:36:28.322Z,1484
2018-09-08T09:36:48.547Z,1464
2018-09-08T09:37:08.730Z,1508
2018-09-08T09:37:29.125Z,1504
2018-09-08T09:37:49.200Z,1520
2018-09-08T09:38:09.357Z,1496
2018-09-08T09:38:29.551Z,1452
2018-09-08T09:38:49.789Z,1468
2018-09-08T09:39:09.972Z,1072
2018-09-08T09:39:30.177Z,1004
2018-09-08T09:39:50.386Z,928
2018-09-08T09:40:10.626Z,1016
2018-09-08T09:40:30.825Z,1060
2018-09-08T09:40:51.036Z,848
2018-09-08T09:41:11.237Z,1236
2018-09-08T09:41:31.449Z,1268
2018-09-08T09:41:51.608Z,988
2018-09-08T09:42:11.761Z,1104
2018-09-08T09:42:32.008Z,984
2018-09-08T09:42:52.235Z,808
2018-09-08T09:43:12.403Z,800
2018-09-08T09:43:32.633Z,816
2018-09-08T09:43:52.833Z,860
2018-09-08T09:44:13.123Z,1200
2018-09-08T09:44:33.500Z,908
2018-09-08T09:44:53.674Z,1460
2018-09-08T09:45:13.813Z,1484
2018-09-08T09:45:34.026Z,924
2018-09-08T09:45:54.201Z,1128
2018-09-08T09:46:14.368Z,1504
2018-09-08T09:46:34.519Z,1472
2018-09-08T09:46:54.734Z,1468
2018-09-08T09:47:15.316Z,1436
2018-09-08T09:47:35.528Z,1428
2018-09-08T09:47:55.700Z,1412
2018-09-08T09:48:15.893Z,1404
2018-09-08T09:48:36.093Z,1440
2018-09-08T09:48:56.303Z,1392
2018-09-08T09:49:16.473Z,1364
2018-09-08T09:49:36.689Z,1332
2018-09-08T09:49:56.862Z,1348
2018-09-08T09:50:17.060Z,1372
2018-09-08T09:50:37.241Z,1388
2018-09-08T09:50:57.419Z,1452
2018-09-08T09:51:17.678Z,1468
2018-09-08T09:51:37.824Z,1424
2018-09-08T09:51:57.977Z,1372
2018-09-08T09:52:18.195Z,1332
2018-09-08T09:52:38.395Z,1376
2018-09-08T09:52:58.621Z,1400
2018-09-08T09:53:18.881Z,1368
2018-09-08T09:53:39.158Z,1324
2018-09-08T09:53:59.429Z,1336
2018-09-08T09:54:19.638Z,1328
2018-09-08T09:54:39.845Z,1320
2018-09-08T09:55:00.089Z,1328
2018-09-08T09:55:20.270Z,1336
2018-09-08T09:55:40.505Z,1352
2018-09-08T09:56:00.735Z,1316
2018-09-08T09:56:20.922Z,788
2018-09-08T09:56:41.656Z,972
2018-09-08T09:57:01.804Z,720
2018-09-08T09:57:22.029Z,812
2018-09-08T09:57:42.272Z,712
2018-09-08T09:58:02.437Z,716
2018-09-08T09:58:22.671Z,944
2018-09-08T09:58:43.036Z,1320
2018-09-08T09:59:03.463Z,1304
2018-09-08T09:59:25.575Z,1284
2018-09-08T09:59:45.872Z,1308
2018-09-08T10:00:06.169Z,1312
2018-09-08T10:00:26.561Z,1320
2018-09-08T10:00:46.796Z,1308
2018-09-08T10:01:07.032Z,1300
2018-09-08T10:01:27.286Z,1320
2018-09-08T10:01:47.474Z,1320
2018-09-08T10:02:07.683Z,1324
2018-09-08T10:02:27.876Z,1328
2018-09-08T10:02:48.105Z,1292
2018-09-08T10:03:08.262Z,1260
2018-09-08T10:03:29.647Z,1212
2018-09-08T10:03:50.001Z,1288
2018-09-08T10:04:10.187Z,1324
2018-09-08T10:04:30.369Z,1336
2018-09-08T10:04:50.558Z,1344
2018-09-08T10:05:10.804Z,1348
2018-09-08T10:05:31.107Z,1348
2018-09-08T10:05:51.281Z,1340
2018-09-08T10:06:12.265Z,1340
2018-09-08T10:06:32.549Z,1356
2018-09-08T10:06:52.726Z,1360
2018-09-08T10:07:12.962Z,1348
2018-09-08T10:07:33.122Z,1380
2018-09-08T10:07:53.317Z,1368
2018-09-08T10:08:13.595Z,1388
2018-09-08T10:08:33.860Z,1380
2018-09-08T10:08:54.071Z,1388
2018-09-08T10:09:14.642Z,1376
2018-09-08T10:09:34.824Z,1360
2018-09-08T10:09:55.056Z,1364
2018-09-08T10:10:15.205Z,1356
2018-09-08T10:10:35.404Z,1356
2018-09-08T10:10:55.605Z,1332
2018-09-08T10:11:15.807Z,1348
2018-09-08T10:11:36.713Z,1344
2018-09-08T10:11:56.984Z,1316
2018-09-08T10:12:17.178Z,1336
2018-09-08T10:12:37.376Z,1348
2018-09-08T10:12:57.552Z,1368
2018-09-08T10:13:17.725Z,1344
2018-09-08T10:13:37.918Z,1348
2018-09-08T10:13:58.177Z,1336
2018-09-08T10:14:18.377Z,1348
2018-09-08T10:14:38.589Z,1352
2018-09-08T10:14:58.747Z,1112
2018-09-08T10:15:18.922Z,1324
2018-09-08T10:15:39.093Z,1236
2018-09-08T10:15:59.275Z,1304
2018-09-08T10:16:19.452Z,1320
2018-09-08T10:16:39.656Z,1320
2018-09-08T10:16:59.872Z,1312
2018-09-08T10:17:20.071Z,1300
2018-09-08T10:17:40.199Z,1276
2018-09-08T10:18:00.406Z,1264
2018-09-08T10:18:20.610Z,1268
2018-09-08T10:18:40.775Z,1236
2018-09-08T10:19:01.004Z,1256
2018-09-08T10:19:21.166Z,1248
2018-09-08T10:19:41.353Z,1260
2018-09-08T10:20:01.663Z,1268
2018-09-08T10:20:22.158Z,876
2018-09-08T10:20:42.437Z,872
2018-09-08T10:21:02.584Z,796
2018-09-08T10:21:22.958Z,848
2018-09-08T10:21:44.026Z,888
2018-09-08T10:22:04.278Z,900
2018-09-08T10:22:24.520Z,920
2018-09-08T10:22:45.392Z,884
2018-09-08T10:23:05.866Z,836
2018-09-08T10:23:26.254Z,796
2018-09-08T10:24:04.316Z,812
2018-09-08T10:24:22.023Z,1120
2018-09-08T10:24:42.915Z,1096
2018-09-08T10:25:03.080Z,1068
2018-09-08T10:25:23.259Z,1044
2018-09-08T10:25:43.484Z,1020
2018-09-08T10:26:03.696Z,1008
2018-09-08T10:26:24.041Z,980
2018-09-08T10:26:44.325Z,960
2018-09-08T10:27:04.868Z,944
2018-09-08T10:27:25.230Z,928
2018-09-08T10:27:45.508Z,920
2018-09-08T11:42:31.486Z,1120
2018-09-08T11:42:51.612Z,1128
2018-09-08T11:43:11.979Z,1136
2018-09-08T11:43:32.284Z,1140
2018-09-08T11:43:52.456Z,1160
2018-09-08T11:44:12.633Z,1188
2018-09-08T11:44:32.773Z,1208
2018-09-08T11:44:53.061Z,1216
2018-09-08T11:45:13.379Z,1220
2018-09-08T11:45:33.597Z,1240
2018-09-08T11:45:53.742Z,1264
2018-09-08T11:46:13.926Z,1288
2018-09-08T11:46:34.176Z,1308
2018-09-08T11:46:54.389Z,1324
2018-09-08T11:47:14.626Z,1332
2018-09-08T11:47:34.800Z,1336
2018-09-08T11:47:54.978Z,1368
2018-09-08T11:48:15.210Z,1368
2018-09-08T11:48:35.382Z,1368
2018-09-08T11:48:55.579Z,1384
2018-09-08T11:49:15.745Z,1396
2018-09-08T11:49:35.999Z,1400
2018-09-08T11:49:56.136Z,1424
2018-09-08T11:50:16.298Z,1420
2018-09-08T11:50:36.794Z,1448
2018-09-08T11:50:57.185Z,1436
2018-09-08T11:51:17.414Z,1468
2018-09-08T11:51:37.601Z,1460
2018-09-08T11:51:57.816Z,1460
2018-09-08T11:52:18.039Z,1464
2018-09-08T11:52:38.211Z,1460
2018-09-08T11:52:58.468Z,1476
2018-09-08T11:53:18.608Z,1476
2018-09-08T11:53:38.881Z,1468
2018-09-08T11:53:59.348Z,1472
2018-09-08T11:54:19.570Z,1476
2018-09-08T11:54:39.784Z,1480
2018-09-08T11:54:59.991Z,1484
2018-09-08T11:55:20.117Z,1480
2018-09-08T11:55:40.568Z,1488
2018-09-08T11:56:00.701Z,1484
2018-09-08T11:56:20.928Z,1488
2018-09-08T11:56:41.097Z,1484
2018-09-08T11:57:01.257Z,1488
2018-09-08T11:57:21.406Z,1496
2018-09-08T11:57:41.641Z,1504
2018-09-08T11:58:01.810Z,1500
2018-09-08T11:58:22.051Z,1484
2018-09-08T11:58:42.284Z,1484
2018-09-08T11:59:02.475Z,1476
2018-09-08T11:59:22.657Z,1484
2018-09-08T11:59:42.973Z,1476
2018-09-08T12:00:03.050Z,1480
2018-09-08T12:00:23.207Z,1484
2018-09-08T12:00:43.425Z,1480
2018-09-08T12:01:03.593Z,1488
2018-09-08T12:01:23.755Z,1488
2018-09-08T12:01:46.704Z,1480
2018-09-08T12:02:06.920Z,1492
2018-09-08T12:02:27.128Z,1492
2018-09-08T12:02:47.367Z,1496
2018-09-08T12:03:07.579Z,1492
2018-09-08T12:03:27.694Z,1484
2018-09-08T12:03:47.925Z,1492
2018-09-08T12:04:09.148Z,1492
2018-09-08T12:04:29.295Z,1476
2018-09-08T12:04:49.481Z,1496
2018-09-08T12:05:09.665Z,1500
2018-09-08T12:05:29.809Z,1456
2018-09-08T12:05:50.048Z,1484
2018-09-08T12:06:10.199Z,1492
2018-09-08T12:06:30.462Z,1464
2018-09-08T12:06:50.607Z,1492
2018-09-08T12:07:10.816Z,1496
2018-09-08T12:07:30.960Z,1500
2018-09-08T12:07:51.136Z,1504
2018-09-08T12:08:11.418Z,1500
2018-09-08T12:08:31.487Z,1512
2018-09-08T12:08:51.655Z,1512
2018-09-08T12:09:11.834Z,1528
2018-09-08T12:09:31.987Z,1524
2018-09-08T12:09:52.228Z,1512
2018-09-08T12:10:12.406Z,1516
2018-09-08T12:10:32.699Z,1508
2018-09-08T12:10:52.887Z,1512
2018-09-08T12:11:13.232Z,1516
2018-09-08T12:11:33.421Z,1528
2018-09-08T12:11:53.604Z,1536
2018-09-08T12:12:13.791Z,1536
2018-09-08T12:12:33.974Z,1520
2018-09-08T12:12:54.160Z,1524
2018-09-08T12:13:14.402Z,1516
2018-09-08T12:13:34.605Z,1520
2018-09-08T12:13:54.871Z,1516
2018-09-08T12:14:15.037Z,1512
2018-09-08T12:14:35.309Z,1512
2018-09-08T12:14:55.651Z,1524
2018-09-08T12:15:15.820Z,1516
2018-09-08T12:15:35.970Z,1524
2018-09-08T12:15:56.679Z,1524
2018-09-08T12:16:16.855Z,1536
2018-09-08T12:16:37.058Z,1540
2018-09-08T12:16:57.242Z,1532
2018-09-08T12:17:17.438Z,1532
2018-09-08T12:17:38.364Z,1544
2018-09-08T12:17:58.652Z,1536
2018-09-08T12:18:18.862Z,1528
2018-09-08T12:18:39.047Z,1528
2018-09-08T12:18:59.212Z,1528
2018-09-08T12:19:19.552Z,1524
2018-09-08T12:19:39.787Z,1516
2018-09-08T12:20:00.008Z,1516
2018-09-08T12:20:20.178Z,1516
2018-09-08T12:21:55.264Z,1520
2018-09-08T12:22:15.577Z,1516
2018-09-08T12:22:35.698Z,1508
2018-09-08T12:22:55.840Z,1480
2018-09-08T12:23:16.021Z,1488
2018-09-08T12:23:36.186Z,1480
2018-09-08T12:23:56.324Z,1492
2018-09-08T12:24:16.496Z,1528
2018-09-08T12:24:36.683Z,1516
2018-09-08T12:24:56.831Z,1516
2018-09-08T12:25:17.011Z,1516
2018-09-08T12:25:37.148Z,1520
2018-09-08T12:25:57.317Z,1516
2018-09-08T12:26:17.466Z,1512
2018-09-08T12:26:37.631Z,1524
2018-09-08T12:26:57.824Z,1516
2018-09-08T12:27:17.958Z,1520
2018-09-08T12:27:38.139Z,1528
2018-09-08T12:27:58.312Z,1504
2018-09-08T12:28:18.509Z,1516
2018-09-08T12:28:38.649Z,1516
2018-09-08T12:28:58.839Z,1512
2018-09-08T12:29:19.031Z,1516
2018-09-08T12:29:39.206Z,1520
2018-09-08T12:29:59.417Z,1508
2018-09-08T12:30:19.627Z,1524
2018-09-08T12:30:39.879Z,1520
2018-09-08T12:31:00.141Z,1524
2018-09-08T12:31:20.372Z,1528
2018-09-08T12:31:40.560Z,1528
2018-09-08T12:32:00.723Z,1524
2018-09-08T12:32:20.915Z,1528
2018-09-08T12:32:41.018Z,1528
2018-09-08T12:33:01.196Z,1524
2018-09-08T12:33:21.357Z,1524
2018-09-08T12:33:41.531Z,1520
2018-09-08T12:34:01.688Z,1516
2018-09-08T12:34:21.866Z,1520
2018-09-08T12:34:42.043Z,1524
2018-09-08T12:35:02.229Z,1524
2018-09-08T12:35:22.393Z,1520
2018-09-08T12:35:42.540Z,1524
2018-09-08T12:36:02.740Z,1524
2018-09-08T12:36:22.903Z,1528
2018-09-08T12:36:43.078Z,1532
2018-09-08T12:37:03.232Z,1532
2018-09-08T12:37:23.465Z,1528
2018-09-08T12:37:43.636Z,1520
2018-09-08T12:38:03.955Z,1516
2018-09-08T12:38:24.051Z,1512
2018-09-08T12:38:44.288Z,1528
2018-09-08T12:39:04.433Z,1508
2018-09-08T12:39:24.581Z,1524
2018-09-08T12:39:44.748Z,1508
2018-09-08T12:40:05.644Z,1524
2018-09-08T12:40:25.811Z,1520
2018-09-08T12:40:45.969Z,1520
2018-09-08T12:41:06.150Z,1516
2018-09-08T12:41:26.332Z,1516
2018-09-08T12:41:46.511Z,1516
2018-09-08T12:42:06.694Z,1524
2018-09-08T12:42:26.937Z,1524
2018-09-08T12:42:47.087Z,1524
2018-09-08T12:43:07.286Z,1524
2018-09-08T12:43:27.415Z,1520
2018-09-08T12:43:47.575Z,1528